Ada, Minnesota
Current Conditions -  °F | °C
As of 2:35 PM on Friday 28 Nov 2014 (Local Time) from K3N8 Reporting Station
Overcast Overcast  
Wind Chill:   Ceiling: 2900
Heat Index: 17°   Visibility: 10mi
Dew Point:   Wind: 7mph
Humidity: 70%   Direction: 110°ESE
Pressure: 29.78"   Gusts: NA
Location:  47.3°N, 96.52°W
Report Text: K3N8 282035Z AUTO 11006KT 10SM OVC029 M09/M13 A2978 RMK AO2 T10861131
Loading
Personal Weather Stations






























Interactive Weather Map New forecast layout! Learn more

10-Day Weather Forecast

Advertisements
Track Severe Weather on mobile